Time;durP1;ratioP1;P1;durP2;ratioP2;P2;SDS_P1;SDS_P2;PMS_P1;PMS_P2;Temp;Humidity;BMP_temperature;BMP_pressure;BME280_temperature;BME280_humidity;BME280_pressure;Samples;Min_cycle;Max_cycle;Signal;HPM_P1;HPM_P2
2021/06/24 00:00:39;;;;;;;10.60;9.33;;;;;;;;;;5116188;28;20494;-68
2021/06/24 00:03:07;;;;;;;14.30;9.37;;;;;;;;;;5115861;28;20532;-68
2021/06/24 00:05:34;;;;;;;14.60;9.60;;;;;;;;;;5116556;28;20435;-68
2021/06/24 00:08:01;;;;;;;11.83;9.70;;;;;;;;;;5116058;28;20456;-68
2021/06/24 00:10:28;;;;;;;12.10;9.80;;;;;;;;;;5115739;28;20526;-68
2021/06/24 00:12:55;;;;;;;14.90;9.97;;;;;;;;;;5116538;28;20870;-68
2021/06/24 00:15:24;;;;;;;13.40;10.03;;;;;;;;;;5115908;28;20525;-68
2021/06/24 00:17:51;;;;;;;11.23;9.70;;;;;;;;;;5115785;28;20484;-68
2021/06/24 00:20:19;;;;;;;12.03;10.07;;;;;;;;;;5115492;28;21033;-69
2021/06/24 00:22:46;;;;;;;12.73;10.20;;;;;;;;;;5115354;28;20572;-68
2021/06/24 00:25:14;;;;;;;12.03;9.20;;;;;;;;;;5115738;28;20491;-68
2021/06/24 00:27:41;;;;;;;15.20;10.47;;;;;;;;;;5116086;28;20481;-68
2021/06/24 00:30:09;;;;;;;13.90;10.40;;;;;;;;;;5115653;28;20440;-68
2021/06/24 00:32:38;;;;;;;11.90;9.13;;;;;;;;;;5116069;28;20534;-68
2021/06/24 00:35:06;;;;;;;13.17;10.87;;;;;;;;;;5115545;28;20841;-68
2021/06/24 00:37:34;;;;;;;12.50;10.03;;;;;;;;;;5115399;28;20518;-68
2021/06/24 00:40:02;;;;;;;14.93;9.17;;;;;;;;;;5114550;28;20444;-67
2021/06/24 00:42:30;;;;;;;14.70;10.80;;;;;;;;;;5116073;28;20477;-68
2021/06/24 00:44:57;;;;;;;15.17;10.50;;;;;;;;;;5115020;28;20439;-68
2021/06/24 00:47:24;;;;;;;15.53;10.53;;;;;;;;;;5115470;28;20529;-67
2021/06/24 00:49:53;;;;;;;14.60;11.57;;;;;;;;;;5116015;28;20766;-68
2021/06/24 00:52:20;;;;;;;13.60;10.30;;;;;;;;;;5114902;28;20919;-67
2021/06/24 00:54:47;;;;;;;16.80;10.67;;;;;;;;;;5115880;28;20618;-68
2021/06/24 00:57:15;;;;;;;13.93;11.77;;;;;;;;;;5114778;28;20926;-67
2021/06/24 00:59:42;;;;;;;17.80;10.20;;;;;;;;;;5114738;28;20512;-68
2021/06/24 01:02:09;;;;;;;20.40;11.20;;;;;;;;;;5114903;28;20558;-68
2021/06/24 01:04:37;;;;;;;13.27;11.40;;;;;;;;;;5115238;28;20442;-68
2021/06/24 01:07:06;;;;;;;28.17;11.77;;;;;;;;;;5115189;28;20489;-68
2021/06/24 01:09:33;;;;;;;19.37;11.67;;;;;;;;;;5114498;28;20443;-67
2021/06/24 01:12:02;;;;;;;12.60;11.00;;;;;;;;;;5115506;28;20449;-68
2021/06/24 01:14:29;;;;;;;15.87;10.77;;;;;;;;;;5114431;28;20986;-67
2021/06/24 01:16:56;;;;;;;14.83;11.17;;;;;;;;;;5114343;28;20478;-67
2021/06/24 01:19:24;;;;;;;19.87;11.20;;;;;;;;;;5114701;28;20439;-67
2021/06/24 01:21:51;;;;;;;16.63;13.00;;;;;;;;;;5114711;28;20471;-67
2021/06/24 01:24:20;;;;;;;13.20;10.80;;;;;;;;;;5114822;28;20431;-67
2021/06/24 01:26:48;;;;;;;15.20;10.63;;;;;;;;;;5114557;28;20439;-67
2021/06/24 01:29:15;;;;;;;15.80;10.93;;;;;;;;;;5114535;28;20436;-67
2021/06/24 01:31:43;;;;;;;13.07;11.00;;;;;;;;;;5114917;28;20791;-67
2021/06/24 01:34:11;;;;;;;19.73;11.80;;;;;;;;;;5114196;28;20439;-67
2021/06/24 01:36:39;;;;;;;14.57;11.90;;;;;;;;;;5114459;28;20446;-68
2021/06/24 01:39:08;;;;;;;13.27;9.73;;;;;;;;;;5114984;28;20439;-67
2021/06/24 01:41:36;;;;;;;14.03;11.00;;;;;;;;;;5114507;28;20481;-67
2021/06/24 01:44:04;;;;;;;16.57;11.87;;;;;;;;;;5114292;28;20442;-68
2021/06/24 01:46:31;;;;;;;14.03;11.23;;;;;;;;;;5114467;28;20818;-68
2021/06/24 01:48:58;;;;;;;15.27;11.57;;;;;;;;;;5114351;28;20431;-67
2021/06/24 01:51:25;;;;;;;14.33;11.37;;;;;;;;;;5113112;28;20441;-68
2021/06/24 01:53:53;;;;;;;15.73;11.63;;;;;;;;;;5114072;28;20437;-68
2021/06/24 01:56:20;;;;;;;16.40;11.00;;;;;;;;;;5114179;28;20434;-67
2021/06/24 01:58:48;;;;;;;14.10;11.00;;;;;;;;;;5114147;28;20435;-68
2021/06/24 02:01:16;;;;;;;12.80;11.10;;;;;;;;;;5114137;28;20465;-68
2021/06/24 02:03:43;;;;;;;19.73;11.10;;;;;;;;;;5113772;28;20931;-67
2021/06/24 02:06:10;;;;;;;16.60;11.20;;;;;;;;;;5113927;28;20488;-68
2021/06/24 02:08:37;;;;;;;18.90;12.50;;;;;;;;;;5114075;28;20877;-67
2021/06/24 02:11:05;;;;;;;17.40;11.53;;;;;;;;;;5114019;28;20443;-67
2021/06/24 02:13:33;;;;;;;14.77;11.90;;;;;;;;;;5113640;28;20455;-67
2021/06/24 02:16:01;;;;;;;12.70;10.80;;;;;;;;;;5113878;28;20804;-68
2021/06/24 02:18:28;;;;;;;17.97;12.30;;;;;;;;;;5114297;28;21025;-67
2021/06/24 02:20:56;;;;;;;15.23;11.43;;;;;;;;;;5114306;28;20522;-67
2021/06/24 02:23:23;;;;;;;13.07;11.40;;;;;;;;;;5113479;28;20468;-68
2021/06/24 02:25:50;;;;;;;14.67;11.53;;;;;;;;;;5113791;28;20461;-68
2021/06/24 02:28:17;;;;;;;21.27;11.97;;;;;;;;;;5113866;28;20449;-68
2021/06/24 02:30:45;;;;;;;16.53;12.17;;;;;;;;;;5114079;28;20443;-67
2021/06/24 02:33:15;;;;;;;19.90;11.70;;;;;;;;;;5113755;28;20447;-68
2021/06/24 02:35:47;;;;;;;20.30;12.43;;;;;;;;;;5113798;28;20460;-68
2021/06/24 02:38:14;;;;;;;27.50;12.23;;;;;;;;;;5114036;28;20501;-67
2021/06/24 02:40:41;;;;;;;19.10;11.93;;;;;;;;;;5113688;28;20703;-67
2021/06/24 02:43:08;;;;;;;19.40;11.93;;;;;;;;;;5113836;28;20828;-68
2021/06/24 02:45:36;;;;;;;14.70;11.77;;;;;;;;;;5113830;28;20921;-68
2021/06/24 02:48:03;;;;;;;13.40;11.40;;;;;;;;;;5113944;28;20934;-68
2021/06/24 02:50:32;;;;;;;21.40;11.53;;;;;;;;;;5113591;28;20832;-68
2021/06/24 02:52:59;;;;;;;15.87;11.27;;;;;;;;;;5113279;28;20443;-68
2021/06/24 02:55:30;;;;;;;15.37;11.57;;;;;;;;;;5113543;28;20439;-68
2021/06/24 02:57:57;;;;;;;18.17;12.73;;;;;;;;;;5113849;28;20804;-68
2021/06/24 03:00:25;;;;;;;18.73;11.70;;;;;;;;;;5113191;28;20447;-68
2021/06/24 03:02:52;;;;;;;17.53;12.33;;;;;;;;;;5114769;28;20484;-68
2021/06/24 03:05:19;;;;;;;21.70;12.73;;;;;;;;;;5117003;28;20936;-68
2021/06/24 03:07:48;;;;;;;14.93;12.30;;;;;;;;;;5117216;28;20442;-68
2021/06/24 03:10:17;;;;;;;18.77;12.93;;;;;;;;;;5117173;28;20518;-68
2021/06/24 03:12:45;;;;;;;19.50;12.53;;;;;;;;;;5117353;28;20493;-68
2021/06/24 03:15:12;;;;;;;19.40;13.17;;;;;;;;;;5117120;28;20442;-68
2021/06/24 03:17:40;;;;;;;21.20;13.70;;;;;;;;;;5117062;28;20497;-68
2021/06/24 03:20:08;;;;;;;16.93;12.90;;;;;;;;;;5116686;28;20530;-67
2021/06/24 03:22:35;;;;;;;27.20;13.50;;;;;;;;;;5116997;28;20466;-68
2021/06/24 03:25:04;;;;;;;16.77;13.00;;;;;;;;;;5116876;28;20529;-67
2021/06/24 03:27:32;;;;;;;17.13;13.13;;;;;;;;;;5116859;28;21018;-68
2021/06/24 03:29:59;;;;;;;23.80;12.67;;;;;;;;;;5116808;28;20525;-68
2021/06/24 03:32:26;;;;;;;17.40;12.80;;;;;;;;;;5117191;28;20486;-68
2021/06/24 03:34:54;;;;;;;17.40;12.97;;;;;;;;;;5116435;28;20522;-68
2021/06/24 03:37:21;;;;;;;16.40;12.50;;;;;;;;;;5116669;28;20443;-67
2021/06/24 03:39:48;;;;;;;18.80;13.30;;;;;;;;;;5116944;28;20470;-67
2021/06/24 03:42:17;;;;;;;15.87;12.73;;;;;;;;;;5116172;28;20977;-68
2021/06/24 03:44:45;;;;;;;21.23;13.60;;;;;;;;;;5116519;28;20440;-68
2021/06/24 03:47:12;;;;;;;16.43;13.23;;;;;;;;;;5116457;28;20457;-67
2021/06/24 03:49:39;;;;;;;18.53;13.60;;;;;;;;;;5116465;28;20467;-67
2021/06/24 03:52:07;;;;;;;15.23;12.80;;;;;;;;;;5116410;28;20446;-67
2021/06/24 03:54:34;;;;;;;18.43;12.63;;;;;;;;;;5116361;28;20439;-68
2021/06/24 03:57:01;;;;;;;16.70;12.67;;;;;;;;;;5116045;28;20449;-68
2021/06/24 03:59:29;;;;;;;13.77;12.30;;;;;;;;;;5116298;28;20494;-68
2021/06/24 04:01:57;;;;;;;21.57;15.07;;;;;;;;;;5115800;28;20449;-67
2021/06/24 04:04:24;;;;;;;14.73;13.07;;;;;;;;;;5116569;28;20432;-68
2021/06/24 04:06:51;;;;;;;22.53;13.10;;;;;;;;;;5116236;28;20433;-67
2021/06/24 04:09:18;;;;;;;16.23;12.40;;;;;;;;;;5115781;28;20973;-68
2021/06/24 04:11:46;;;;;;;18.23;12.73;;;;;;;;;;5115778;28;20505;-67
2021/06/24 04:14:13;;;;;;;18.97;13.63;;;;;;;;;;5114965;28;20443;-67
2021/06/24 04:16:41;;;;;;;19.20;13.33;;;;;;;;;;5115554;28;20460;-67
2021/06/24 04:19:10;;;;;;;21.60;13.07;;;;;;;;;;5115602;28;20521;-67
2021/06/24 04:21:37;;;;;;;15.97;13.07;;;;;;;;;;5115538;28;20447;-68
2021/06/24 04:24:05;;;;;;;17.17;13.10;;;;;;;;;;5115302;28;20579;-68
2021/06/24 04:26:32;;;;;;;20.93;13.07;;;;;;;;;;5115741;28;20434;-64
2021/06/24 04:28:59;;;;;;;20.03;13.67;;;;;;;;;;5115671;28;20439;-64
2021/06/24 04:31:26;;;;;;;17.57;11.80;;;;;;;;;;5125968;27;20453;-64
2021/06/24 04:33:56;;;;;;;19.60;13.13;;;;;;;;;;5122499;27;20446;-64
2021/06/24 04:36:23;;;;;;;14.20;12.37;;;;;;;;;;5115750;28;20986;-64
2021/06/24 04:38:50;;;;;;;13.67;11.60;;;;;;;;;;5115079;28;20927;-64
2021/06/24 04:41:18;;;;;;;20.07;13.23;;;;;;;;;;5115070;28;20793;-64
2021/06/24 04:43:45;;;;;;;18.20;11.83;;;;;;;;;;5115282;28;20474;-63
2021/06/24 04:46:13;;;;;;;17.00;13.00;;;;;;;;;;5114873;28;20443;-64
2021/06/24 04:48:40;;;;;;;19.30;14.10;;;;;;;;;;5115098;28;20984;-64
2021/06/24 04:51:08;;;;;;;17.80;13.50;;;;;;;;;;5115161;28;20808;-64
2021/06/24 04:53:36;;;;;;;17.50;13.33;;;;;;;;;;5114875;28;20444;-63
2021/06/24 04:56:03;;;;;;;17.30;12.13;;;;;;;;;;5115154;28;20435;-64
2021/06/24 04:58:30;;;;;;;20.37;13.40;;;;;;;;;;5115199;28;20529;-64
2021/06/24 05:00:58;;;;;;;14.97;12.00;;;;;;;;;;5114755;28;20449;-64
2021/06/24 05:03:25;;;;;;;18.53;12.90;;;;;;;;;;5114827;28;20478;-64
2021/06/24 05:05:53;;;;;;;18.03;14.10;;;;;;;;;;5115077;28;20448;-67
2021/06/24 05:08:22;;;;;;;15.07;12.50;;;;;;;;;;5114813;28;20449;-66
2021/06/24 05:10:49;;;;;;;17.90;12.00;;;;;;;;;;5114791;28;20434;-65
2021/06/24 05:13:17;;;;;;;18.20;11.00;;;;;;;;;;5114520;28;20995;-66
2021/06/24 05:15:45;;;;;;;16.53;13.10;;;;;;;;;;5114495;28;20939;-65
2021/06/24 05:18:13;;;;;;;25.73;13.37;;;;;;;;;;5114886;28;20477;-66
2021/06/24 05:20:40;;;;;;;16.97;13.00;;;;;;;;;;5113988;28;20439;-69
2021/06/24 05:23:08;;;;;;;13.80;12.00;;;;;;;;;;5134655;27;20481;-66
2021/06/24 05:25:39;;;;;;;19.10;11.97;;;;;;;;;;5135318;27;20434;-66
2021/06/24 05:28:06;;;;;;;14.10;12.60;;;;;;;;;;5117823;27;20443;-66
2021/06/24 05:30:34;;;;;;;13.43;12.00;;;;;;;;;;5114566;28;20923;-66
2021/06/24 05:33:01;;;;;;;14.40;12.90;;;;;;;;;;5114098;28;20529;-66
2021/06/24 05:35:28;;;;;;;15.90;12.83;;;;;;;;;;5114130;28;20442;-66
2021/06/24 05:37:56;;;;;;;15.03;12.70;;;;;;;;;;5114033;28;20482;-66
2021/06/24 05:40:23;;;;;;;17.77;12.20;;;;;;;;;;5114231;28;20526;-67
2021/06/24 05:42:52;;;;;;;16.93;12.40;;;;;;;;;;5114148;28;20561;-66
2021/06/24 05:45:23;;;;;;;16.37;11.23;;;;;;;;;;5114753;28;20545;-65
2021/06/24 05:47:51;;;;;;;15.10;12.53;;;;;;;;;;5114699;28;20446;-66
2021/06/24 05:50:18;;;;;;;16.83;12.77;;;;;;;;;;5113905;28;20529;-74
2021/06/24 05:52:45;;;;;;;17.33;11.93;;;;;;;;;;5114157;28;20539;-65
2021/06/24 05:55:13;;;;;;;16.60;12.37;;;;;;;;;;5114074;28;20485;-66
2021/06/24 05:57:40;;;;;;;16.97;12.63;;;;;;;;;;5114078;28;20478;-66
2021/06/24 06:00:10;;;;;;;21.13;12.37;;;;;;;;;;5113712;28;20979;-65
2021/06/24 06:02:37;;;;;;;18.47;13.17;;;;;;;;;;5113958;28;20435;-65
2021/06/24 06:05:05;;;;;;;15.80;11.43;;;;;;;;;;5113793;28;20443;-66
2021/06/24 06:07:33;;;;;;;13.40;11.00;;;;;;;;;;5113861;28;20835;-66
2021/06/24 06:10:00;;;;;;;30.20;15.27;;;;;;;;;;5114068;28;20868;-65
2021/06/24 06:12:28;;;;;;;16.37;12.20;;;;;;;;;;5113560;28;20467;-65
2021/06/24 06:14:55;;;;;;;13.83;11.77;;;;;;;;;;5113895;28;20446;-65
2021/06/24 06:17:24;;;;;;;13.50;10.90;;;;;;;;;;5113779;28;20511;-66
2021/06/24 06:19:51;;;;;;;15.27;12.70;;;;;;;;;;5113604;28;20480;-65
2021/06/24 06:22:18;;;;;;;15.10;12.63;;;;;;;;;;5113583;28;20449;-65
2021/06/24 06:24:45;;;;;;;16.03;10.73;;;;;;;;;;5113505;28;21034;-66
2021/06/24 06:27:13;;;;;;;17.70;11.77;;;;;;;;;;5113818;28;20526;-66
2021/06/24 06:29:40;;;;;;;18.40;12.50;;;;;;;;;;5113415;28;20526;-66
2021/06/24 06:32:08;;;;;;;19.23;12.43;;;;;;;;;;5114143;28;20549;-65
2021/06/24 06:34:36;;;;;;;16.50;12.30;;;;;;;;;;5113672;28;20450;-65
2021/06/24 06:37:04;;;;;;;13.13;11.80;;;;;;;;;;5113865;28;20531;-65
2021/06/24 06:39:31;;;;;;;15.17;11.50;;;;;;;;;;5117456;28;20443;-66
2021/06/24 06:41:58;;;;;;;16.43;12.47;;;;;;;;;;5117733;28;20526;-65
2021/06/24 06:44:25;;;;;;;23.03;13.03;;;;;;;;;;5118305;28;20471;-66
2021/06/24 06:46:52;;;;;;;15.00;11.90;;;;;;;;;;5117774;28;20540;-66
2021/06/24 06:49:20;;;;;;;16.03;13.00;;;;;;;;;;5117702;28;20515;-65
2021/06/24 06:51:48;;;;;;;20.53;12.17;;;;;;;;;;5117497;28;20435;-66
2021/06/24 06:54:16;;;;;;;15.00;11.53;;;;;;;;;;5117495;28;20545;-66
2021/06/24 06:56:46;;;;;;;14.13;12.63;;;;;;;;;;5117418;28;20490;-66
2021/06/24 06:59:13;;;;;;;13.20;11.73;;;;;;;;;;5117119;28;20800;-65
2021/06/24 07:01:40;;;;;;;12.60;11.40;;;;;;;;;;5117117;28;20435;-66
2021/06/24 07:04:07;;;;;;;13.40;11.37;;;;;;;;;;5116887;28;20549;-66
2021/06/24 07:06:35;;;;;;;17.30;11.60;;;;;;;;;;5117280;28;20543;-66
2021/06/24 07:09:03;;;;;;;12.80;10.70;;;;;;;;;;5117288;28;20522;-66
2021/06/24 07:11:30;;;;;;;15.13;10.47;;;;;;;;;;5116824;28;20442;-67
2021/06/24 07:13:58;;;;;;;13.33;10.50;;;;;;;;;;5117419;28;20522;-66
2021/06/24 07:16:25;;;;;;;17.70;13.43;;;;;;;;;;5116336;28;20546;-66
2021/06/24 07:18:52;;;;;;;16.47;10.50;;;;;;;;;;5116702;28;20423;-65
2021/06/24 07:21:20;;;;;;;19.80;11.77;;;;;;;;;;5116929;28;20530;-65
2021/06/24 07:23:47;;;;;;;16.43;12.60;;;;;;;;;;5117011;28;20472;-65
2021/06/24 07:26:15;;;;;;;17.50;12.43;;;;;;;;;;5116707;28;20944;-66
2021/06/24 07:28:43;;;;;;;15.73;10.87;;;;;;;;;;5117102;28;20439;-66
2021/06/24 07:31:10;;;;;;;15.97;10.53;;;;;;;;;;5116905;28;20496;-66
2021/06/24 07:33:37;;;;;;;17.33;11.27;;;;;;;;;;5117208;28;20820;-66
2021/06/24 07:36:05;;;;;;;13.03;10.40;;;;;;;;;;5116950;28;20437;-66
2021/06/24 07:38:32;;;;;;;14.27;10.90;;;;;;;;;;5116709;28;20436;-66
2021/06/24 07:40:59;;;;;;;13.93;10.37;;;;;;;;;;5116616;28;20434;-66
2021/06/24 07:43:28;;;;;;;13.37;10.57;;;;;;;;;;5116184;28;20473;-66
2021/06/24 07:45:55;;;;;;;11.63;10.43;;;;;;;;;;5116161;28;20532;-67
2021/06/24 07:48:22;;;;;;;18.80;11.30;;;;;;;;;;5116312;28;20453;-66
2021/06/24 07:50:50;;;;;;;12.30;10.30;;;;;;;;;;5116416;28;20842;-66
2021/06/24 07:53:17;;;;;;;15.50;11.40;;;;;;;;;;5116379;28;20470;-66
2021/06/24 07:55:45;;;;;;;15.30;10.70;;;;;;;;;;5116505;28;20486;-66
2021/06/24 07:58:12;;;;;;;15.53;11.13;;;;;;;;;;5115983;28;20853;-66
2021/06/24 08:00:41;;;;;;;14.70;10.27;;;;;;;;;;5115965;28;20440;-66
2021/06/24 08:03:08;;;;;;;17.03;10.33;;;;;;;;;;5116684;28;20436;-66
2021/06/24 08:05:36;;;;;;;18.50;13.47;;;;;;;;;;5116811;28;20518;-66
2021/06/24 08:08:04;;;;;;;14.83;11.70;;;;;;;;;;5116041;28;20443;-67
2021/06/24 08:10:31;;;;;;;11.80;10.30;;;;;;;;;;5116338;28;20435;-66
2021/06/24 08:12:58;;;;;;;16.80;11.57;;;;;;;;;;5116085;28;20483;-65
2021/06/24 08:15:26;;;;;;;12.37;11.07;;;;;;;;;;5115655;28;20534;-67
2021/06/24 08:17:58;;;;;;;14.60;11.70;;;;;;;;;;5116271;28;20900;-65
2021/06/24 08:20:25;;;;;;;12.27;11.00;;;;;;;;;;5116495;28;20492;-65
2021/06/24 08:22:53;;;;;;;13.80;10.40;;;;;;;;;;5115514;28;20921;-66
2021/06/24 08:25:20;;;;;;;11.83;10.57;;;;;;;;;;5115372;28;20475;-65
2021/06/24 08:27:49;;;;;;;14.33;10.97;;;;;;;;;;5115300;28;20445;-65
2021/06/24 08:30:17;;;;;;;15.93;9.97;;;;;;;;;;5115706;28;20439;-66
2021/06/24 08:32:44;;;;;;;10.93;9.80;;;;;;;;;;5115668;28;20531;-66
2021/06/24 08:35:13;;;;;;;13.00;11.43;;;;;;;;;;5115549;28;20466;-67
2021/06/24 08:37:41;;;;;;;17.37;11.17;;;;;;;;;;5115451;28;20440;-66
2021/06/24 08:40:10;;;;;;;16.70;10.03;;;;;;;;;;5115173;28;20939;-66
2021/06/24 08:42:37;;;;;;;12.90;9.97;;;;;;;;;;5115442;28;20502;-66
2021/06/24 08:45:06;;;;;;;15.70;9.83;;;;;;;;;;5115297;28;20506;-66
2021/06/24 08:47:35;;;;;;;11.17;9.70;;;;;;;;;;5115024;28;20465;-66
2021/06/24 08:50:02;;;;;;;13.73;9.03;;;;;;;;;;5114984;28;20521;-66
2021/06/24 08:52:31;;;;;;;13.53;9.70;;;;;;;;;;5115561;28;20444;-66
2021/06/24 08:54:58;;;;;;;9.83;8.80;;;;;;;;;;5115206;28;20838;-66
2021/06/24 08:57:26;;;;;;;14.57;9.13;;;;;;;;;;5115139;28;20483;-66
2021/06/24 08:59:54;;;;;;;10.30;9.23;;;;;;;;;;5114231;28;20535;-66
2021/06/24 09:02:37;;;;;;;10.77;9.43;;;;;;;;;;5115054;28;20476;-66
2021/06/24 09:05:04;;;;;;;10.93;9.20;;;;;;;;;;5115124;28;20459;-65
2021/06/24 09:07:33;;;;;;;19.30;10.90;;;;;;;;;;5114666;28;20925;-66
2021/06/24 09:10:00;;;;;;;14.40;9.60;;;;;;;;;;5114867;28;21011;-66
2021/06/24 09:12:28;;;;;;;13.20;9.90;;;;;;;;;;5114815;28;20445;-66
2021/06/24 09:14:56;;;;;;;10.40;8.53;;;;;;;;;;5114446;28;20482;-65
2021/06/24 09:17:36;;;;;;;11.03;9.13;;;;;;;;;;5114667;28;20502;-65
2021/06/24 09:20:06;;;;;;;12.00;8.40;;;;;;;;;;5114712;28;20529;-65
2021/06/24 09:22:35;;;;;;;12.07;8.30;;;;;;;;;;5114651;28;20483;-65
2021/06/24 09:25:02;;;;;;;12.43;9.80;;;;;;;;;;5115057;28;20506;-65
2021/06/24 09:27:30;;;;;;;10.47;8.47;;;;;;;;;;5114944;28;20475;-66
2021/06/24 09:30:06;;;;;;;19.43;9.70;;;;;;;;;;5114202;28;20455;-66
2021/06/24 09:32:34;;;;;;;10.87;8.60;;;;;;;;;;5114483;28;20852;-65
2021/06/24 09:35:03;;;;;;;14.40;9.30;;;;;;;;;;5114131;28;21007;-67
2021/06/24 09:37:30;;;;;;;15.27;9.17;;;;;;;;;;5114762;28;20491;-66
2021/06/24 09:40:12;;;;;;;11.60;9.10;;;;;;;;;;5114369;28;20439;-66
2021/06/24 09:42:39;;;;;;;13.00;9.67;;;;;;;;;;5114393;28;20849;-66
2021/06/24 09:45:07;;;;;;;10.17;9.07;;;;;;;;;;5114224;28;20479;-66
2021/06/24 09:47:35;;;;;;;13.07;10.90;;;;;;;;;;5114633;28;20452;-65
2021/06/24 09:50:02;;;;;;;14.03;10.10;;;;;;;;;;5113917;28;20439;-67
2021/06/24 09:52:30;;;;;;;11.67;9.27;;;;;;;;;;5113863;28;20517;-67
2021/06/24 09:55:06;;;;;;;12.83;9.50;;;;;;;;;;5114426;28;20526;-66
2021/06/24 09:57:34;;;;;;;13.23;9.80;;;;;;;;;;5114643;28;20414;-66
2021/06/24 10:00:16;;;;;;;12.13;10.00;;;;;;;;;;5113818;28;20933;-66
2021/06/24 10:02:58;;;;;;;12.20;10.93;;;;;;;;;;5113844;28;20534;-66
2021/06/24 10:05:25;;;;;;;13.30;11.00;;;;;;;;;;5114692;28;20467;-66
2021/06/24 10:07:52;;;;;;;11.70;10.10;;;;;;;;;;5114286;28;20439;-66
2021/06/24 10:10:23;;;;;;;10.43;9.37;;;;;;;;;;5114490;28;20922;-66
2021/06/24 10:12:50;;;;;;;13.33;10.60;;;;;;;;;;5115728;28;20427;-66
2021/06/24 10:15:18;;;;;;;12.37;10.50;;;;;;;;;;5118312;28;20471;-66
2021/06/24 10:17:45;;;;;;;14.50;9.30;;;;;;;;;;5118437;28;20477;-65
2021/06/24 10:20:13;;;;;;;12.93;9.90;;;;;;;;;;5118124;28;20526;-66
2021/06/24 10:22:42;;;;;;;12.23;10.70;;;;;;;;;;5118187;28;20523;-65
2021/06/24 10:25:11;;;;;;;13.97;9.63;;;;;;;;;;5118022;28;20483;-66
2021/06/24 10:27:41;;;;;;;15.27;9.07;;;;;;;;;;5118847;28;20463;-66
2021/06/24 10:30:12;;;;;;;10.37;9.37;;;;;;;;;;5118386;28;20523;-66
2021/06/24 10:32:40;;;;;;;15.83;9.83;;;;;;;;;;5117833;28;20483;-66
2021/06/24 10:35:08;;;;;;;12.60;10.27;;;;;;;;;;5118058;28;20476;-66
2021/06/24 10:37:36;;;;;;;11.70;9.83;;;;;;;;;;5117554;28;20449;-66
2021/06/24 10:40:23;;;;;;;13.00;11.07;;;;;;;;;;5117400;28;20528;-66
2021/06/24 10:42:53;;;;;;;12.97;11.67;;;;;;;;;;5117413;28;20948;-65
2021/06/24 10:45:21;;;;;;;12.27;10.83;;;;;;;;;;5117336;28;20575;-66
2021/06/24 10:47:48;;;;;;;10.30;8.97;;;;;;;;;;5117779;28;20457;-66
2021/06/24 10:50:34;;;;;;;14.43;9.50;;;;;;;;;;5118148;28;20556;-67
2021/06/24 10:53:21;;;;;;;11.23;9.30;;;;;;;;;;5117554;28;20441;-66
2021/06/24 10:55:50;;;;;;;10.80;9.20;;;;;;;;;;5117527;28;20484;-66
2021/06/24 10:58:32;;;;;;;11.67;10.40;;;;;;;;;;5117193;28;20954;-65
2021/06/24 11:01:01;;;;;;;8.73;7.63;;;;;;;;;;5116953;28;20532;-65
2021/06/24 11:03:40;;;;;;;10.07;8.70;;;;;;;;;;5117286;28;20435;-66
2021/06/24 11:06:10;;;;;;;11.00;9.13;;;;;;;;;;5117536;28;20470;-66
2021/06/24 11:08:39;;;;;;;14.00;9.10;;;;;;;;;;5116870;28;20441;-67
2021/06/24 11:11:07;;;;;;;11.67;9.00;;;;;;;;;;5116882;28;20535;-66
2021/06/24 11:13:45;;;;;;;14.87;9.50;;;;;;;;;;5116868;28;20445;-66
2021/06/24 11:16:32;;;;;;;11.63;9.07;;;;;;;;;;5117718;28;20445;-66
2021/06/24 11:19:06;;;;;;;14.47;10.27;;;;;;;;;;5116791;28;20421;-67
2021/06/24 11:21:48;;;;;;;11.93;8.43;;;;;;;;;;5117583;28;20428;-66
2021/06/24 11:24:17;;;;;;;10.07;9.00;;;;;;;;;;5116084;28;21002;-66
2021/06/24 11:26:45;;;;;;;11.80;7.90;;;;;;;;;;5116881;28;20442;-66
2021/06/24 11:29:19;;;;;;;8.40;7.60;;;;;;;;;;5117025;28;20521;-66
2021/06/24 11:31:50;;;;;;;8.93;8.00;;;;;;;;;;5117896;28;20426;-67
2021/06/24 11:34:23;;;;;;;11.83;8.87;;;;;;;;;;5116795;28;20434;-65
2021/06/24 11:36:52;;;;;;;10.63;7.53;;;;;;;;;;5116660;28;20513;-66
2021/06/24 11:39:23;;;;;;;9.17;8.07;;;;;;;;;;5116363;28;20442;-65
2021/06/24 11:41:54;;;;;;;9.17;7.77;;;;;;;;;;5116467;28;20452;-65
2021/06/24 11:44:25;;;;;;;12.40;9.00;;;;;;;;;;5116477;28;20439;-66
2021/06/24 11:46:58;;;;;;;8.90;7.83;;;;;;;;;;5117012;28;20447;-66
2021/06/24 11:49:33;;;;;;;12.80;10.90;;;;;;;;;;5116209;28;20949;-66
2021/06/24 12:00:43;;;;;;;8.40;6.90;;;;;;;;;;5116044;28;20771;-66
2021/06/24 12:03:20;;;;;;;13.40;8.67;;;;;;;;;;5116312;28;20476;-66
2021/06/24 12:05:52;;;;;;;9.80;8.90;;;;;;;;;;5115869;28;21032;-66
2021/06/24 12:08:22;;;;;;;9.17;7.90;;;;;;;;;;5115966;28;20437;-66
2021/06/24 12:10:50;;;;;;;8.53;7.47;;;;;;;;;;5115700;28;20443;-65
2021/06/24 12:13:29;;;;;;;8.77;7.80;;;;;;;;;;5116008;28;20437;-67
2021/06/24 12:15:57;;;;;;;9.70;8.70;;;;;;;;;;5116413;28;20426;-66
2021/06/24 12:18:35;;;;;;;9.27;8.37;;;;;;;;;;5116919;28;20553;-66
2021/06/24 12:21:04;;;;;;;10.90;8.77;;;;;;;;;;5116128;28;20446;-67
2021/06/24 12:23:31;;;;;;;8.93;8.00;;;;;;;;;;5115732;28;20492;-66
2021/06/24 12:26:00;;;;;;;9.13;8.23;;;;;;;;;;5115665;28;20475;-68
2021/06/24 12:28:27;;;;;;;9.57;8.50;;;;;;;;;;5115770;28;20461;-66
2021/06/24 12:30:55;;;;;;;9.40;8.50;;;;;;;;;;5116029;28;21000;-66
2021/06/24 12:33:25;;;;;;;8.87;8.03;;;;;;;;;;5116020;28;20446;-66
2021/06/24 12:35:54;;;;;;;10.47;7.40;;;;;;;;;;5114463;28;20971;-66
2021/06/24 12:38:23;;;;;;;11.30;8.17;;;;;;;;;;5115190;28;20447;-65
2021/06/24 12:40:51;;;;;;;10.10;8.03;;;;;;;;;;5115454;28;20448;-66
2021/06/24 12:43:19;;;;;;;8.07;7.40;;;;;;;;;;5115099;28;20450;-66
2021/06/24 12:45:47;;;;;;;14.03;9.50;;;;;;;;;;5115394;28;20479;-67
2021/06/24 12:48:31;;;;;;;12.97;8.47;;;;;;;;;;5115345;28;20526;-67
2021/06/24 12:51:00;;;;;;;9.50;8.40;;;;;;;;;;5115191;28;20907;-66
2021/06/24 12:53:32;;;;;;;9.40;8.40;;;;;;;;;;5114860;28;20472;-66
2021/06/24 12:56:00;;;;;;;9.73;8.77;;;;;;;;;;5114910;28;20479;-66
2021/06/24 12:58:34;;;;;;;8.00;7.30;;;;;;;;;;5115117;28;20827;-66
2021/06/24 13:01:09;;;;;;;9.40;8.20;;;;;;;;;;5115115;28;20434;-66
2021/06/24 13:03:43;;;;;;;6.80;6.10;;;;;;;;;;5115147;28;20433;-67
2021/06/24 13:06:13;;;;;;;9.40;8.50;;;;;;;;;;5120930;27;20473;-67
2021/06/24 13:08:51;;;;;;;9.43;8.53;;;;;;;;;;5135348;27;20520;-67
2021/06/24 13:11:20;;;;;;;8.47;7.67;;;;;;;;;;5135458;27;20434;-68
2021/06/24 13:13:54;;;;;;;11.77;9.33;;;;;;;;;;5135042;27;20485;-67
2021/06/24 13:16:22;;;;;;;11.70;10.10;;;;;;;;;;5135559;27;20491;-66
2021/06/24 13:18:50;;;;;;;9.90;9.00;;;;;;;;;;5134961;27;20480;-67
2021/06/24 13:21:19;;;;;;;10.17;9.23;;;;;;;;;;5134953;27;20535;-67
2021/06/24 13:23:47;;;;;;;10.30;8.07;;;;;;;;;;5135228;27;20776;-67
2021/06/24 13:26:16;;;;;;;10.67;9.67;;;;;;;;;;5135092;27;20518;-67
2021/06/24 13:28:44;;;;;;;9.23;7.80;;;;;;;;;;5135094;27;20759;-66
2021/06/24 13:31:12;;;;;;;12.63;8.77;;;;;;;;;;5135615;27;20529;-67
2021/06/24 13:33:40;;;;;;;9.07;8.20;;;;;;;;;;5134812;27;20430;-66
2021/06/24 13:36:22;;;;;;;9.00;8.10;;;;;;;;;;5128457;27;20473;-67
2021/06/24 13:38:56;;;;;;;10.20;8.70;;;;;;;;;;5114220;28;20481;-67
2021/06/24 13:41:24;;;;;;;10.20;8.77;;;;;;;;;;5114128;28;20428;-67
2021/06/24 13:44:08;;;;;;;9.60;8.40;;;;;;;;;;5114014;28;20438;-66
2021/06/24 13:46:35;;;;;;;8.40;7.50;;;;;;;;;;5114335;28;20482;-67
2021/06/24 13:49:03;;;;;;;10.00;9.00;;;;;;;;;;5113929;28;21077;-66
2021/06/24 13:51:31;;;;;;;10.60;9.60;;;;;;;;;;5114256;28;20521;-67
2021/06/24 13:53:59;;;;;;;9.10;8.20;;;;;;;;;;5114154;28;20518;-67
2021/06/24 13:56:27;;;;;;;8.57;7.77;;;;;;;;;;5113872;28;20978;-67
2021/06/24 13:58:55;;;;;;;12.83;8.30;;;;;;;;;;5114209;28;20439;-67
2021/06/24 14:01:22;;;;;;;8.07;7.23;;;;;;;;;;5113770;28;20942;-67
2021/06/24 14:03:50;;;;;;;10.93;8.90;;;;;;;;;;5114320;28;20434;-66
2021/06/24 14:06:17;;;;;;;9.33;8.03;;;;;;;;;;5113505;28;20477;-67
2021/06/24 14:08:46;;;;;;;8.80;8.00;;;;;;;;;;5114006;28;20548;-67
2021/06/24 14:11:15;;;;;;;9.30;8.40;;;;;;;;;;5113662;28;20534;-66
2021/06/24 14:13:42;;;;;;;11.67;8.97;;;;;;;;;;5113673;28;20441;-66
2021/06/24 14:16:13;;;;;;;9.13;8.43;;;;;;;;;;5113778;28;20915;-66
2021/06/24 14:18:40;;;;;;;9.20;7.77;;;;;;;;;;5113524;28;20423;-67
2021/06/24 14:21:09;;;;;;;9.93;9.00;;;;;;;;;;5114202;28;20486;-66
2021/06/24 14:23:36;;;;;;;9.97;9.10;;;;;;;;;;5114129;28;20447;-67
2021/06/24 14:26:05;;;;;;;10.90;9.40;;;;;;;;;;5113330;28;20513;-66
2021/06/24 14:28:32;;;;;;;13.93;9.20;;;;;;;;;;5113887;28;20449;-65
2021/06/24 14:31:00;;;;;;;9.70;8.50;;;;;;;;;;5113459;28;20446;-67
2021/06/24 14:33:29;;;;;;;9.20;8.30;;;;;;;;;;5113670;28;20444;-67
2021/06/24 14:35:56;;;;;;;10.43;9.13;;;;;;;;;;5113843;28;20449;-66
2021/06/24 14:38:23;;;;;;;9.90;9.00;;;;;;;;;;5113792;28;20446;-67
2021/06/24 14:40:51;;;;;;;10.13;9.13;;;;;;;;;;5113684;28;20442;-67